sensor_id;sensor_type;location;lat;lon;timestamp;P1;durP1;ratioP1;P2;durP2;ratioP2
13469;SDS011;6807;48.682;9.032;2023-07-22T00:00:11;4.35;;;3.10;;
13469;SDS011;6807;48.682;9.032;2023-07-22T00:02:41;3.33;;;3.03;;
13469;SDS011;6807;48.682;9.032;2023-07-22T00:05:08;3.22;;;2.92;;
13469;SDS011;6807;48.682;9.032;2023-07-22T00:07:36;3.05;;;2.67;;
13469;SDS011;6807;48.682;9.032;2023-07-22T00:10:03;3.58;;;3.10;;
13469;SDS011;6807;48.682;9.032;2023-07-22T00:12:30;2.95;;;2.70;;
13469;SDS011;6807;48.682;9.032;2023-07-22T00:14:57;3.22;;;2.80;;
13469;SDS011;6807;48.682;9.032;2023-07-22T00:17:24;4.05;;;2.80;;
13469;SDS011;6807;48.682;9.032;2023-07-22T00:19:52;5.70;;;3.28;;
13469;SDS011;6807;48.682;9.032;2023-07-22T00:22:19;3.13;;;2.80;;
13469;SDS011;6807;48.682;9.032;2023-07-22T00:24:47;3.97;;;3.20;;
13469;SDS011;6807;48.682;9.032;2023-07-22T00:27:14;3.33;;;3.03;;
13469;SDS011;6807;48.682;9.032;2023-07-22T00:29:41;4.07;;;3.05;;
13469;SDS011;6807;48.682;9.032;2023-07-22T00:32:08;3.50;;;3.20;;
13469;SDS011;6807;48.682;9.032;2023-07-22T00:34:34;3.85;;;3.22;;
13469;SDS011;6807;48.682;9.032;2023-07-22T00:37:03;3.45;;;3.10;;
13469;SDS011;6807;48.682;9.032;2023-07-22T00:39:30;4.75;;;3.40;;
13469;SDS011;6807;48.682;9.032;2023-07-22T00:41:56;5.13;;;3.22;;
13469;SDS011;6807;48.682;9.032;2023-07-22T00:44:23;5.03;;;2.92;;
13469;SDS011;6807;48.682;9.032;2023-07-22T00:46:50;4.82;;;3.10;;
13469;SDS011;6807;48.682;9.032;2023-07-22T00:49:19;4.35;;;3.67;;
13469;SDS011;6807;48.682;9.032;2023-07-22T00:51:46;3.58;;;3.17;;
13469;SDS011;6807;48.682;9.032;2023-07-22T00:54:14;6.35;;;3.40;;
13469;SDS011;6807;48.682;9.032;2023-07-22T00:56:41;3.97;;;3.03;;
13469;SDS011;6807;48.682;9.032;2023-07-22T00:59:10;3.60;;;3.10;;
13469;SDS011;6807;48.682;9.032;2023-07-22T01:01:37;3.97;;;3.08;;
13469;SDS011;6807;48.682;9.032;2023-07-22T01:04:04;4.95;;;3.35;;
13469;SDS011;6807;48.682;9.032;2023-07-22T01:06:32;4.47;;;3.00;;
13469;SDS011;6807;48.682;9.032;2023-07-22T01:09:01;5.78;;;3.13;;
13469;SDS011;6807;48.682;9.032;2023-07-22T01:11:30;3.67;;;3.05;;
13469;SDS011;6807;48.682;9.032;2023-07-22T01:13:57;3.78;;;3.13;;
13469;SDS011;6807;48.682;9.032;2023-07-22T01:16:24;3.22;;;2.70;;
13469;SDS011;6807;48.682;9.032;2023-07-22T01:18:52;4.20;;;3.08;;
13469;SDS011;6807;48.682;9.032;2023-07-22T01:21:21;4.10;;;3.08;;
13469;SDS011;6807;48.682;9.032;2023-07-22T01:23:51;5.28;;;3.13;;
13469;SDS011;6807;48.682;9.032;2023-07-22T01:26:18;3.13;;;2.67;;
13469;SDS011;6807;48.682;9.032;2023-07-22T01:28:45;3.58;;;3.10;;
13469;SDS011;6807;48.682;9.032;2023-07-22T01:31:12;3.40;;;3.10;;
13469;SDS011;6807;48.682;9.032;2023-07-22T01:33:39;6.70;;;3.30;;
13469;SDS011;6807;48.682;9.032;2023-07-22T01:36:05;3.88;;;3.28;;
13469;SDS011;6807;48.682;9.032;2023-07-22T01:38:32;3.40;;;2.85;;
13469;SDS011;6807;48.682;9.032;2023-07-22T01:41:02;3.50;;;2.95;;
13469;SDS011;6807;48.682;9.032;2023-07-22T01:43:29;3.40;;;3.10;;
13469;SDS011;6807;48.682;9.032;2023-07-22T01:45:55;4.95;;;3.10;;
13469;SDS011;6807;48.682;9.032;2023-07-22T01:48:22;3.03;;;2.75;;
13469;SDS011;6807;48.682;9.032;2023-07-22T01:50:49;3.42;;;3.13;;
13469;SDS011;6807;48.682;9.032;2023-07-22T01:53:16;3.90;;;3.17;;
13469;SDS011;6807;48.682;9.032;2023-07-22T01:55:43;2.88;;;2.65;;
13469;SDS011;6807;48.682;9.032;2023-07-22T01:58:11;4.20;;;3.38;;
13469;SDS011;6807;48.682;9.032;2023-07-22T02:00:38;5.57;;;3.38;;
13469;SDS011;6807;48.682;9.032;2023-07-22T02:03:05;3.05;;;2.60;;
13469;SDS011;6807;48.682;9.032;2023-07-22T02:05:32;3.60;;;3.08;;
13469;SDS011;6807;48.682;9.032;2023-07-22T02:07:58;3.47;;;3.15;;
13469;SDS011;6807;48.682;9.032;2023-07-22T02:10:25;4.13;;;3.45;;
13469;SDS011;6807;48.682;9.032;2023-07-22T02:12:52;2.97;;;2.72;;
13469;SDS011;6807;48.682;9.032;2023-07-22T02:15:20;3.95;;;2.90;;
13469;SDS011;6807;48.682;9.032;2023-07-22T02:17:49;4.95;;;3.10;;
13469;SDS011;6807;48.682;9.032;2023-07-22T02:20:16;4.10;;;2.85;;
13469;SDS011;6807;48.682;9.032;2023-07-22T02:22:43;3.60;;;3.20;;
13469;SDS011;6807;48.682;9.032;2023-07-22T02:25:10;4.05;;;3.05;;
13469;SDS011;6807;48.682;9.032;2023-07-22T02:27:36;4.00;;;3.08;;
13469;SDS011;6807;48.682;9.032;2023-07-22T02:30:05;4.65;;;3.20;;
13469;SDS011;6807;48.682;9.032;2023-07-22T02:32:38;4.15;;;3.15;;
13469;SDS011;6807;48.682;9.032;2023-07-22T02:35:06;3.90;;;3.38;;
13469;SDS011;6807;48.682;9.032;2023-07-22T02:37:33;5.00;;;3.20;;
13469;SDS011;6807;48.682;9.032;2023-07-22T02:40:01;4.43;;;2.75;;
13469;SDS011;6807;48.682;9.032;2023-07-22T02:42:32;5.10;;;3.05;;
13469;SDS011;6807;48.682;9.032;2023-07-22T02:44:59;3.13;;;2.83;;
13469;SDS011;6807;48.682;9.032;2023-07-22T02:47:26;3.63;;;3.33;;
13469;SDS011;6807;48.682;9.032;2023-07-22T02:49:54;3.38;;;2.85;;
13469;SDS011;6807;48.682;9.032;2023-07-22T02:52:21;4.70;;;3.22;;
13469;SDS011;6807;48.682;9.032;2023-07-22T02:55:03;5.28;;;3.38;;
13469;SDS011;6807;48.682;9.032;2023-07-22T02:57:31;3.58;;;3.15;;
13469;SDS011;6807;48.682;9.032;2023-07-22T02:59:58;3.65;;;3.15;;
13469;SDS011;6807;48.682;9.032;2023-07-22T03:02:25;3.83;;;3.47;;
13469;SDS011;6807;48.682;9.032;2023-07-22T03:04:52;3.55;;;2.60;;
13469;SDS011;6807;48.682;9.032;2023-07-22T03:07:20;4.10;;;3.15;;
13469;SDS011;6807;48.682;9.032;2023-07-22T03:09:47;4.25;;;2.97;;
13469;SDS011;6807;48.682;9.032;2023-07-22T03:12:14;3.50;;;3.10;;
13469;SDS011;6807;48.682;9.032;2023-07-22T03:14:40;3.90;;;2.97;;
13469;SDS011;6807;48.682;9.032;2023-07-22T03:17:07;3.83;;;2.78;;
13469;SDS011;6807;48.682;9.032;2023-07-22T03:19:34;4.50;;;2.85;;
13469;SDS011;6807;48.682;9.032;2023-07-22T03:22:01;2.95;;;2.75;;
13469;SDS011;6807;48.682;9.032;2023-07-22T03:24:29;3.88;;;2.90;;
13469;SDS011;6807;48.682;9.032;2023-07-22T03:26:56;4.43;;;2.78;;
13469;SDS011;6807;48.682;9.032;2023-07-22T03:29:23;3.95;;;2.70;;
13469;SDS011;6807;48.682;9.032;2023-07-22T03:31:50;3.95;;;3.05;;
13469;SDS011;6807;48.682;9.032;2023-07-22T03:34:17;4.90;;;3.00;;
13469;SDS011;6807;48.682;9.032;2023-07-22T03:36:43;4.53;;;3.42;;
13469;SDS011;6807;48.682;9.032;2023-07-22T03:39:11;3.42;;;3.03;;
13469;SDS011;6807;48.682;9.032;2023-07-22T03:41:39;5.30;;;3.03;;
13469;SDS011;6807;48.682;9.032;2023-07-22T03:44:06;3.92;;;2.88;;
13469;SDS011;6807;48.682;9.032;2023-07-22T03:46:33;3.58;;;3.00;;
13469;SDS011;6807;48.682;9.032;2023-07-22T03:49:00;4.75;;;2.90;;
13469;SDS011;6807;48.682;9.032;2023-07-22T03:51:27;4.65;;;2.88;;
13469;SDS011;6807;48.682;9.032;2023-07-22T03:53:53;5.25;;;4.10;;
13469;SDS011;6807;48.682;9.032;2023-07-22T03:56:20;4.93;;;2.95;;
13469;SDS011;6807;48.682;9.032;2023-07-22T03:58:50;5.53;;;2.80;;
13469;SDS011;6807;48.682;9.032;2023-07-22T04:01:17;3.05;;;2.75;;
13469;SDS011;6807;48.682;9.032;2023-07-22T04:03:44;3.25;;;2.95;;
13469;SDS011;6807;48.682;9.032;2023-07-22T04:06:11;3.63;;;2.75;;
13469;SDS011;6807;48.682;9.032;2023-07-22T04:08:38;3.60;;;3.17;;
13469;SDS011;6807;48.682;9.032;2023-07-22T04:11:05;4.80;;;3.13;;
13469;SDS011;6807;48.682;9.032;2023-07-22T04:13:31;2.67;;;2.47;;
13469;SDS011;6807;48.682;9.032;2023-07-22T04:16:00;4.35;;;2.80;;
13469;SDS011;6807;48.682;9.032;2023-07-22T04:18:26;3.47;;;2.85;;
13469;SDS011;6807;48.682;9.032;2023-07-22T04:20:58;2.92;;;2.63;;
13469;SDS011;6807;48.682;9.032;2023-07-22T04:23:25;2.95;;;2.58;;
13469;SDS011;6807;48.682;9.032;2023-07-22T04:25:52;4.63;;;2.90;;
13469;SDS011;6807;48.682;9.032;2023-07-22T04:28:19;4.70;;;2.80;;
13469;SDS011;6807;48.682;9.032;2023-07-22T04:30:54;4.25;;;2.97;;
13469;SDS011;6807;48.682;9.032;2023-07-22T04:33:24;4.28;;;3.78;;
13469;SDS011;6807;48.682;9.032;2023-07-22T04:35:52;3.90;;;3.08;;
13469;SDS011;6807;48.682;9.032;2023-07-22T04:38:20;3.75;;;3.17;;
13469;SDS011;6807;48.682;9.032;2023-07-22T04:40:47;3.38;;;2.92;;
13469;SDS011;6807;48.682;9.032;2023-07-22T04:43:14;3.20;;;2.90;;
13469;SDS011;6807;48.682;9.032;2023-07-22T04:45:41;3.50;;;2.83;;
13469;SDS011;6807;48.682;9.032;2023-07-22T04:48:07;8.80;;;7.22;;
13469;SDS011;6807;48.682;9.032;2023-07-22T04:50:35;5.85;;;4.05;;
13469;SDS011;6807;48.682;9.032;2023-07-22T04:53:05;4.22;;;3.28;;
13469;SDS011;6807;48.682;9.032;2023-07-22T04:55:33;4.68;;;2.95;;
13469;SDS011;6807;48.682;9.032;2023-07-22T04:57:59;4.60;;;2.75;;
13469;SDS011;6807;48.682;9.032;2023-07-22T05:00:26;3.78;;;2.70;;
13469;SDS011;6807;48.682;9.032;2023-07-22T05:02:54;3.78;;;3.08;;
13469;SDS011;6807;48.682;9.032;2023-07-22T05:05:21;2.97;;;2.65;;
13469;SDS011;6807;48.682;9.032;2023-07-22T05:07:50;4.57;;;3.00;;
13469;SDS011;6807;48.682;9.032;2023-07-22T05:10:17;4.35;;;3.00;;
13469;SDS011;6807;48.682;9.032;2023-07-22T05:12:44;4.20;;;2.85;;
13469;SDS011;6807;48.682;9.032;2023-07-22T05:15:11;4.18;;;3.00;;
13469;SDS011;6807;48.682;9.032;2023-07-22T05:17:39;4.30;;;2.90;;
13469;SDS011;6807;48.682;9.032;2023-07-22T05:20:06;4.90;;;3.03;;
13469;SDS011;6807;48.682;9.032;2023-07-22T05:22:35;3.30;;;3.00;;
13469;SDS011;6807;48.682;9.032;2023-07-22T05:25:04;5.55;;;2.90;;
13469;SDS011;6807;48.682;9.032;2023-07-22T05:27:32;4.03;;;2.60;;
13469;SDS011;6807;48.682;9.032;2023-07-22T05:29:59;3.45;;;3.15;;
13469;SDS011;6807;48.682;9.032;2023-07-22T05:32:27;5.32;;;2.90;;
13469;SDS011;6807;48.682;9.032;2023-07-22T05:34:54;5.53;;;3.10;;
13469;SDS011;6807;48.682;9.032;2023-07-22T05:37:21;3.40;;;2.80;;
13469;SDS011;6807;48.682;9.032;2023-07-22T05:39:48;3.78;;;2.90;;
13469;SDS011;6807;48.682;9.032;2023-07-22T05:42:16;4.00;;;3.10;;
13469;SDS011;6807;48.682;9.032;2023-07-22T05:44:43;3.13;;;2.50;;
13469;SDS011;6807;48.682;9.032;2023-07-22T05:47:10;3.00;;;2.63;;
13469;SDS011;6807;48.682;9.032;2023-07-22T05:49:37;3.45;;;2.75;;
13469;SDS011;6807;48.682;9.032;2023-07-22T05:52:04;5.30;;;2.78;;
13469;SDS011;6807;48.682;9.032;2023-07-22T05:54:31;4.10;;;3.10;;
13469;SDS011;6807;48.682;9.032;2023-07-22T05:56:58;2.72;;;2.30;;
13469;SDS011;6807;48.682;9.032;2023-07-22T05:59:26;2.63;;;2.42;;
13469;SDS011;6807;48.682;9.032;2023-07-22T06:01:53;2.90;;;2.40;;
13469;SDS011;6807;48.682;9.032;2023-07-22T06:04:20;3.67;;;2.90;;
13469;SDS011;6807;48.682;9.032;2023-07-22T06:06:47;5.95;;;2.55;;
13469;SDS011;6807;48.682;9.032;2023-07-22T06:09:14;2.72;;;2.38;;
13469;SDS011;6807;48.682;9.032;2023-07-22T06:11:41;2.55;;;2.33;;
13469;SDS011;6807;48.682;9.032;2023-07-22T06:14:08;3.92;;;2.53;;
13469;SDS011;6807;48.682;9.032;2023-07-22T06:16:36;4.47;;;2.20;;
13469;SDS011;6807;48.682;9.032;2023-07-22T06:19:03;2.65;;;2.25;;
13469;SDS011;6807;48.682;9.032;2023-07-22T06:21:30;3.90;;;2.50;;
13469;SDS011;6807;48.682;9.032;2023-07-22T06:23:57;3.25;;;2.42;;
13469;SDS011;6807;48.682;9.032;2023-07-22T06:26:24;5.20;;;2.60;;
13469;SDS011;6807;48.682;9.032;2023-07-22T06:28:51;4.03;;;2.67;;
13469;SDS011;6807;48.682;9.032;2023-07-22T06:31:17;3.30;;;2.33;;
13469;SDS011;6807;48.682;9.032;2023-07-22T06:33:45;3.47;;;2.33;;
13469;SDS011;6807;48.682;9.032;2023-07-22T06:36:13;2.97;;;2.50;;
13469;SDS011;6807;48.682;9.032;2023-07-22T06:38:41;3.83;;;2.35;;
13469;SDS011;6807;48.682;9.032;2023-07-22T06:41:08;2.92;;;2.30;;
13469;SDS011;6807;48.682;9.032;2023-07-22T06:43:35;4.07;;;2.42;;
13469;SDS011;6807;48.682;9.032;2023-07-22T06:46:02;3.80;;;2.97;;
13469;SDS011;6807;48.682;9.032;2023-07-22T06:48:28;2.90;;;2.60;;
13469;SDS011;6807;48.682;9.032;2023-07-22T06:50:57;3.35;;;2.45;;
13469;SDS011;6807;48.682;9.032;2023-07-22T06:53:23;3.47;;;2.40;;
13469;SDS011;6807;48.682;9.032;2023-07-22T06:55:50;3.50;;;2.25;;
13469;SDS011;6807;48.682;9.032;2023-07-22T06:58:18;2.92;;;2.30;;
13469;SDS011;6807;48.682;9.032;2023-07-22T07:00:45;4.82;;;2.30;;
13469;SDS011;6807;48.682;9.032;2023-07-22T07:03:12;3.25;;;2.40;;
13469;SDS011;6807;48.682;9.032;2023-07-22T07:05:39;3.88;;;2.30;;
13469;SDS011;6807;48.682;9.032;2023-07-22T07:08:08;2.42;;;2.13;;
13469;SDS011;6807;48.682;9.032;2023-07-22T07:10:36;4.15;;;2.22;;
13469;SDS011;6807;48.682;9.032;2023-07-22T07:13:04;2.80;;;2.10;;
13469;SDS011;6807;48.682;9.032;2023-07-22T07:15:31;3.38;;;2.40;;
13469;SDS011;6807;48.682;9.032;2023-07-22T07:17:57;2.78;;;2.35;;
13469;SDS011;6807;48.682;9.032;2023-07-22T07:20:24;3.00;;;2.33;;
13469;SDS011;6807;48.682;9.032;2023-07-22T07:22:51;6.80;;;2.60;;
13469;SDS011;6807;48.682;9.032;2023-07-22T07:25:19;6.15;;;2.35;;
13469;SDS011;6807;48.682;9.032;2023-07-22T07:27:46;3.85;;;2.35;;
13469;SDS011;6807;48.682;9.032;2023-07-22T07:30:13;4.07;;;3.00;;
13469;SDS011;6807;48.682;9.032;2023-07-22T07:32:39;3.17;;;2.50;;
13469;SDS011;6807;48.682;9.032;2023-07-22T07:35:07;3.00;;;2.30;;
13469;SDS011;6807;48.682;9.032;2023-07-22T07:37:34;3.17;;;2.80;;
13469;SDS011;6807;48.682;9.032;2023-07-22T07:40:01;5.68;;;2.13;;
13469;SDS011;6807;48.682;9.032;2023-07-22T07:42:30;2.67;;;2.22;;
13469;SDS011;6807;48.682;9.032;2023-07-22T07:44:57;3.22;;;2.28;;
13469;SDS011;6807;48.682;9.032;2023-07-22T07:47:24;2.20;;;1.90;;
13469;SDS011;6807;48.682;9.032;2023-07-22T07:49:51;2.42;;;2.22;;
13469;SDS011;6807;48.682;9.032;2023-07-22T07:52:17;4.63;;;2.13;;
13469;SDS011;6807;48.682;9.032;2023-07-22T07:54:44;3.47;;;2.20;;
13469;SDS011;6807;48.682;9.032;2023-07-22T07:57:11;2.33;;;2.13;;
13469;SDS011;6807;48.682;9.032;2023-07-22T07:59:39;4.53;;;3.42;;
13469;SDS011;6807;48.682;9.032;2023-07-22T08:02:06;3.22;;;2.90;;
13469;SDS011;6807;48.682;9.032;2023-07-22T08:04:35;3.42;;;2.25;;
13469;SDS011;6807;48.682;9.032;2023-07-22T08:07:05;2.05;;;1.70;;
13469;SDS011;6807;48.682;9.032;2023-07-22T08:09:32;4.57;;;2.60;;
13469;SDS011;6807;48.682;9.032;2023-07-22T08:12:00;3.53;;;1.98;;
13469;SDS011;6807;48.682;9.032;2023-07-22T08:14:28;3.05;;;2.08;;
13469;SDS011;6807;48.682;9.032;2023-07-22T08:16:57;2.55;;;2.10;;
13469;SDS011;6807;48.682;9.032;2023-07-22T08:19:23;2.10;;;1.80;;
13469;SDS011;6807;48.682;9.032;2023-07-22T08:21:50;3.85;;;2.08;;
13469;SDS011;6807;48.682;9.032;2023-07-22T08:24:17;3.63;;;2.25;;
13469;SDS011;6807;48.682;9.032;2023-07-22T08:26:44;2.70;;;2.00;;
13469;SDS011;6807;48.682;9.032;2023-07-22T08:29:11;2.30;;;2.10;;
13469;SDS011;6807;48.682;9.032;2023-07-22T08:31:37;2.40;;;2.10;;
13469;SDS011;6807;48.682;9.032;2023-07-22T08:34:05;6.47;;;1.90;;
13469;SDS011;6807;48.682;9.032;2023-07-22T08:36:32;3.28;;;2.63;;
13469;SDS011;6807;48.682;9.032;2023-07-22T08:39:00;4.55;;;2.15;;
13469;SDS011;6807;48.682;9.032;2023-07-22T08:41:28;3.00;;;2.10;;
13469;SDS011;6807;48.682;9.032;2023-07-22T08:43:56;1.98;;;1.77;;
13469;SDS011;6807;48.682;9.032;2023-07-22T08:46:25;3.10;;;2.42;;
13469;SDS011;6807;48.682;9.032;2023-07-22T08:48:55;2.03;;;1.65;;
13469;SDS011;6807;48.682;9.032;2023-07-22T08:51:26;2.00;;;1.80;;
13469;SDS011;6807;48.682;9.032;2023-07-22T08:53:54;1.70;;;1.60;;
13469;SDS011;6807;48.682;9.032;2023-07-22T08:56:23;1.77;;;1.67;;
13469;SDS011;6807;48.682;9.032;2023-07-22T08:58:50;2.03;;;1.70;;
13469;SDS011;6807;48.682;9.032;2023-07-22T09:01:17;2.10;;;1.88;;
13469;SDS011;6807;48.682;9.032;2023-07-22T09:03:44;2.03;;;1.80;;
13469;SDS011;6807;48.682;9.032;2023-07-22T09:06:16;2.85;;;1.92;;
13469;SDS011;6807;48.682;9.032;2023-07-22T09:08:45;1.95;;;1.73;;
13469;SDS011;6807;48.682;9.032;2023-07-22T09:11:12;4.15;;;2.13;;
13469;SDS011;6807;48.682;9.032;2023-07-22T09:13:39;3.80;;;1.90;;
13469;SDS011;6807;48.682;9.032;2023-07-22T09:16:08;2.13;;;1.80;;
13469;SDS011;6807;48.682;9.032;2023-07-22T09:18:36;3.33;;;1.60;;
13469;SDS011;6807;48.682;9.032;2023-07-22T09:21:03;4.13;;;3.05;;
13469;SDS011;6807;48.682;9.032;2023-07-22T09:23:33;4.00;;;2.88;;
13469;SDS011;6807;48.682;9.032;2023-07-22T09:26:11;2.00;;;1.80;;
13469;SDS011;6807;48.682;9.032;2023-07-22T09:28:50;2.53;;;2.22;;
13469;SDS011;6807;48.682;9.032;2023-07-22T09:31:19;2.75;;;1.88;;
13469;SDS011;6807;48.682;9.032;2023-07-22T09:33:46;2.08;;;1.88;;
13469;SDS011;6807;48.682;9.032;2023-07-22T09:36:13;3.50;;;2.40;;
13469;SDS011;6807;48.682;9.032;2023-07-22T09:38:40;2.10;;;1.90;;
13469;SDS011;6807;48.682;9.032;2023-07-22T09:41:07;1.80;;;1.50;;
13469;SDS011;6807;48.682;9.032;2023-07-22T09:43:39;2.50;;;1.73;;
13469;SDS011;6807;48.682;9.032;2023-07-22T09:46:07;1.77;;;1.50;;
13469;SDS011;6807;48.682;9.032;2023-07-22T09:48:41;1.70;;;1.60;;
13469;SDS011;6807;48.682;9.032;2023-07-22T09:51:13;2.05;;;1.50;;
13469;SDS011;6807;48.682;9.032;2023-07-22T09:53:44;1.65;;;1.55;;
13469;SDS011;6807;48.682;9.032;2023-07-22T09:56:14;1.80;;;1.70;;
13469;SDS011;6807;48.682;9.032;2023-07-22T09:58:42;3.05;;;1.60;;
13469;SDS011;6807;48.682;9.032;2023-07-22T10:01:13;2.20;;;1.73;;
13469;SDS011;6807;48.682;9.032;2023-07-22T10:03:43;3.17;;;1.95;;
13469;SDS011;6807;48.682;9.032;2023-07-22T10:06:14;2.97;;;1.95;;
13469;SDS011;6807;48.682;9.032;2023-07-22T10:08:43;2.13;;;1.90;;
13469;SDS011;6807;48.682;9.032;2023-07-22T10:11:11;1.98;;;1.60;;
13469;SDS011;6807;48.682;9.032;2023-07-22T10:13:39;3.58;;;2.00;;
13469;SDS011;6807;48.682;9.032;2023-07-22T10:16:07;2.58;;;2.00;;
13469;SDS011;6807;48.682;9.032;2023-07-22T10:18:35;2.20;;;2.00;;
13469;SDS011;6807;48.682;9.032;2023-07-22T10:21:02;3.72;;;2.28;;
13469;SDS011;6807;48.682;9.032;2023-07-22T10:23:30;1.88;;;1.77;;
13469;SDS011;6807;48.682;9.032;2023-07-22T10:25:58;2.70;;;1.60;;
13469;SDS011;6807;48.682;9.032;2023-07-22T10:28:26;2.58;;;1.90;;
13469;SDS011;6807;48.682;9.032;2023-07-22T10:34:45;1.63;;;1.50;;
13469;SDS011;6807;48.682;9.032;2023-07-22T10:41:04;2.50;;;2.00;;
13469;SDS011;6807;48.682;9.032;2023-07-22T10:43:38;1.90;;;1.80;;
13469;SDS011;6807;48.682;9.032;2023-07-22T10:49:02;2.35;;;2.15;;
13469;SDS011;6807;48.682;9.032;2023-07-22T10:51:41;2.75;;;1.77;;
13469;SDS011;6807;48.682;9.032;2023-07-22T10:54:35;2.50;;;1.83;;
13469;SDS011;6807;48.682;9.032;2023-07-22T11:00:04;2.40;;;1.92;;
13469;SDS011;6807;48.682;9.032;2023-07-22T11:05:55;4.72;;;1.75;;
13469;SDS011;6807;48.682;9.032;2023-07-22T11:08:39;2.00;;;1.80;;
13469;SDS011;6807;48.682;9.032;2023-07-22T11:11:09;3.25;;;2.13;;
13469;SDS011;6807;48.682;9.032;2023-07-22T11:13:42;2.28;;;1.80;;
13469;SDS011;6807;48.682;9.032;2023-07-22T11:16:10;2.13;;;1.80;;
13469;SDS011;6807;48.682;9.032;2023-07-22T11:18:38;1.83;;;1.73;;
13469;SDS011;6807;48.682;9.032;2023-07-22T11:21:13;2.50;;;2.00;;
13469;SDS011;6807;48.682;9.032;2023-07-22T11:26:53;2.10;;;1.90;;
13469;SDS011;6807;48.682;9.032;2023-07-22T11:29:26;1.90;;;1.60;;
13469;SDS011;6807;48.682;9.032;2023-07-22T12:43:50;2.20;;;2.00;;
13469;SDS011;6807;48.682;9.032;2023-07-22T12:46:26;2.92;;;2.30;;
13469;SDS011;6807;48.682;9.032;2023-07-22T12:48:53;2.50;;;2.20;;
13469;SDS011;6807;48.682;9.032;2023-07-22T12:51:20;2.13;;;1.92;;
13469;SDS011;6807;48.682;9.032;2023-07-22T12:53:50;2.03;;;1.88;;
13469;SDS011;6807;48.682;9.032;2023-07-22T12:56:16;4.65;;;2.30;;
13469;SDS011;6807;48.682;9.032;2023-07-22T12:58:43;2.40;;;2.20;;
13469;SDS011;6807;48.682;9.032;2023-07-22T13:01:12;7.93;;;2.70;;
13469;SDS011;6807;48.682;9.032;2023-07-22T13:03:38;2.42;;;2.05;;
13469;SDS011;6807;48.682;9.032;2023-07-22T13:06:05;3.42;;;2.28;;
13469;SDS011;6807;48.682;9.032;2023-07-22T13:08:32;3.28;;;2.60;;
13469;SDS011;6807;48.682;9.032;2023-07-22T13:13:49;2.75;;;2.47;;
13469;SDS011;6807;48.682;9.032;2023-07-22T13:16:17;2.80;;;2.53;;
13469;SDS011;6807;48.682;9.032;2023-07-22T13:18:43;2.72;;;2.00;;
13469;SDS011;6807;48.682;9.032;2023-07-22T13:21:10;2.83;;;2.40;;
13469;SDS011;6807;48.682;9.032;2023-07-22T13:23:48;2.78;;;2.38;;
13469;SDS011;6807;48.682;9.032;2023-07-22T13:26:15;2.45;;;2.25;;
13469;SDS011;6807;48.682;9.032;2023-07-22T13:28:42;4.10;;;2.42;;
13469;SDS011;6807;48.682;9.032;2023-07-22T13:31:08;2.40;;;2.20;;
13469;SDS011;6807;48.682;9.032;2023-07-22T13:33:36;3.05;;;2.47;;
13469;SDS011;6807;48.682;9.032;2023-07-22T13:36:03;2.50;;;2.30;;
13469;SDS011;6807;48.682;9.032;2023-07-22T13:38:30;3.42;;;2.50;;
13469;SDS011;6807;48.682;9.032;2023-07-22T13:40:57;2.40;;;2.20;;
13469;SDS011;6807;48.682;9.032;2023-07-22T13:43:24;3.55;;;2.50;;
13469;SDS011;6807;48.682;9.032;2023-07-22T13:45:52;2.55;;;2.25;;
13469;SDS011;6807;48.682;9.032;2023-07-22T13:48:19;6.03;;;2.85;;
13469;SDS011;6807;48.682;9.032;2023-07-22T13:50:49;3.53;;;2.50;;
13469;SDS011;6807;48.682;9.032;2023-07-22T13:53:16;2.72;;;2.20;;
13469;SDS011;6807;48.682;9.032;2023-07-22T13:55:43;3.45;;;2.45;;
13469;SDS011;6807;48.682;9.032;2023-07-22T13:58:09;3.38;;;2.60;;
13469;SDS011;6807;48.682;9.032;2023-07-22T14:00:36;2.83;;;2.50;;
13469;SDS011;6807;48.682;9.032;2023-07-22T14:03:03;4.07;;;2.55;;
13469;SDS011;6807;48.682;9.032;2023-07-22T14:05:30;3.80;;;3.25;;
13469;SDS011;6807;48.682;9.032;2023-07-22T14:07:58;3.72;;;2.50;;
13469;SDS011;6807;48.682;9.032;2023-07-22T14:10:25;3.00;;;2.60;;
13469;SDS011;6807;48.682;9.032;2023-07-22T14:12:51;6.82;;;4.20;;
13469;SDS011;6807;48.682;9.032;2023-07-22T14:15:18;6.10;;;4.50;;
13469;SDS011;6807;48.682;9.032;2023-07-22T14:17:45;3.65;;;2.80;;
13469;SDS011;6807;48.682;9.032;2023-07-22T14:20:12;2.92;;;2.63;;
13469;SDS011;6807;48.682;9.032;2023-07-22T14:22:39;4.18;;;2.72;;
13469;SDS011;6807;48.682;9.032;2023-07-22T14:25:09;5.18;;;2.50;;
13469;SDS011;6807;48.682;9.032;2023-07-22T14:27:37;3.42;;;2.35;;
13469;SDS011;6807;48.682;9.032;2023-07-22T14:30:05;2.75;;;2.50;;
13469;SDS011;6807;48.682;9.032;2023-07-22T14:32:32;2.53;;;2.33;;
13469;SDS011;6807;48.682;9.032;2023-07-22T14:34:59;2.97;;;2.63;;
13469;SDS011;6807;48.682;9.032;2023-07-22T14:37:26;4.60;;;2.50;;
13469;SDS011;6807;48.682;9.032;2023-07-22T14:39:53;3.30;;;2.40;;
13469;SDS011;6807;48.682;9.032;2023-07-22T14:42:21;3.08;;;2.60;;
13469;SDS011;6807;48.682;9.032;2023-07-22T14:44:47;3.05;;;2.75;;
13469;SDS011;6807;48.682;9.032;2023-07-22T14:47:14;3.10;;;2.70;;
13469;SDS011;6807;48.682;9.032;2023-07-22T14:49:41;3.88;;;2.40;;
13469;SDS011;6807;48.682;9.032;2023-07-22T14:52:08;4.32;;;2.85;;
13469;SDS011;6807;48.682;9.032;2023-07-22T14:54:35;4.53;;;3.33;;
13469;SDS011;6807;48.682;9.032;2023-07-22T14:57:02;3.70;;;3.17;;
13469;SDS011;6807;48.682;9.032;2023-07-22T14:59:30;4.60;;;2.95;;
13469;SDS011;6807;48.682;9.032;2023-07-22T15:01:58;3.33;;;2.80;;
13469;SDS011;6807;48.682;9.032;2023-07-22T15:04:24;4.05;;;2.53;;
13469;SDS011;6807;48.682;9.032;2023-07-22T15:06:51;3.40;;;2.90;;
13469;SDS011;6807;48.682;9.032;2023-07-22T15:09:18;3.80;;;2.75;;
13469;SDS011;6807;48.682;9.032;2023-07-22T15:11:45;3.25;;;2.50;;
13469;SDS011;6807;48.682;9.032;2023-07-22T15:14:12;3.92;;;2.65;;
13469;SDS011;6807;48.682;9.032;2023-07-22T15:16:40;3.22;;;2.65;;
13469;SDS011;6807;48.682;9.032;2023-07-22T15:19:07;7.13;;;2.80;;
13469;SDS011;6807;48.682;9.032;2023-07-22T15:21:34;3.25;;;2.50;;
13469;SDS011;6807;48.682;9.032;2023-07-22T15:24:00;4.97;;;2.50;;
13469;SDS011;6807;48.682;9.032;2023-07-22T15:26:27;3.95;;;2.65;;
13469;SDS011;6807;48.682;9.032;2023-07-22T15:28:54;3.33;;;2.70;;
13469;SDS011;6807;48.682;9.032;2023-07-22T15:31:21;3.67;;;2.35;;
13469;SDS011;6807;48.682;9.032;2023-07-22T15:33:49;3.42;;;2.40;;
13469;SDS011;6807;48.682;9.032;2023-07-22T15:36:16;3.75;;;2.83;;
13469;SDS011;6807;48.682;9.032;2023-07-22T15:38:43;3.65;;;2.70;;
13469;SDS011;6807;48.682;9.032;2023-07-22T15:41:10;3.42;;;3.00;;
13469;SDS011;6807;48.682;9.032;2023-07-22T15:43:36;5.80;;;2.90;;
13469;SDS011;6807;48.682;9.032;2023-07-22T15:46:03;5.72;;;3.25;;
13469;SDS011;6807;48.682;9.032;2023-07-22T15:48:30;3.58;;;2.95;;
13469;SDS011;6807;48.682;9.032;2023-07-22T15:50:58;5.00;;;3.30;;
13469;SDS011;6807;48.682;9.032;2023-07-22T15:53:25;3.42;;;2.80;;
13469;SDS011;6807;48.682;9.032;2023-07-22T15:55:52;3.75;;;2.88;;
13469;SDS011;6807;48.682;9.032;2023-07-22T15:58:19;3.70;;;2.88;;
13469;SDS011;6807;48.682;9.032;2023-07-22T16:00:46;3.47;;;2.55;;
13469;SDS011;6807;48.682;9.032;2023-07-22T16:03:13;3.05;;;2.75;;
13469;SDS011;6807;48.682;9.032;2023-07-22T16:05:40;2.85;;;2.50;;
13469;SDS011;6807;48.682;9.032;2023-07-22T16:08:10;5.05;;;3.13;;
13469;SDS011;6807;48.682;9.032;2023-07-22T16:10:37;3.90;;;2.90;;
13469;SDS011;6807;48.682;9.032;2023-07-22T16:13:03;4.57;;;2.65;;
13469;SDS011;6807;48.682;9.032;2023-07-22T16:15:30;2.92;;;2.60;;
13469;SDS011;6807;48.682;9.032;2023-07-22T16:17:57;3.17;;;2.60;;
13469;SDS011;6807;48.682;9.032;2023-07-22T16:20:24;5.38;;;2.75;;
13469;SDS011;6807;48.682;9.032;2023-07-22T16:22:51;3.20;;;2.85;;
13469;SDS011;6807;48.682;9.032;2023-07-22T16:25:19;3.60;;;2.80;;
13469;SDS011;6807;48.682;9.032;2023-07-22T16:27:46;12.30;;;2.65;;
13469;SDS011;6807;48.682;9.032;2023-07-22T16:30:12;3.33;;;2.28;;
13469;SDS011;6807;48.682;9.032;2023-07-22T16:32:39;2.90;;;2.50;;
13469;SDS011;6807;48.682;9.032;2023-07-22T16:35:07;3.15;;;2.50;;
13469;SDS011;6807;48.682;9.032;2023-07-22T16:37:35;3.35;;;2.55;;